createdAt,value
2022-11-16T19:27:18.532Z,2.60
2022-11-16T19:28:55.085Z,1.90
2022-11-16T19:30:27.027Z,2.20
2022-11-16T19:32:00.172Z,1.90
2022-11-16T19:33:32.234Z,2.20
2022-11-16T19:35:06.875Z,3.00
2022-11-16T19:36:42.018Z,2.40
2022-11-16T19:38:14.637Z,2.60
2022-11-16T19:39:49.450Z,2.10
2022-11-16T19:41:25.084Z,2.20
2022-11-16T19:42:57.394Z,2.30
2022-11-16T19:44:29.296Z,2.50
2022-11-16T19:46:17.461Z,2.70
2022-11-16T19:47:51.265Z,2.10
2022-11-16T19:49:24.435Z,2.00
2022-11-16T19:50:56.640Z,1.80
2022-11-16T19:52:31.477Z,1.90
2022-11-16T19:54:06.425Z,1.80
2022-11-16T19:55:40.141Z,2.00
2022-11-16T19:57:20.664Z,1.90
2022-11-16T19:58:56.697Z,2.50
2022-11-16T20:00:28.600Z,2.00
2022-11-16T20:02:01.241Z,2.30
2022-11-16T20:03:34.362Z,2.20
2022-11-16T20:05:07.366Z,2.20
2022-11-16T20:06:40.881Z,2.60
2022-11-16T20:08:12.729Z,2.30
2022-11-16T20:09:47.173Z,2.80
2022-11-16T20:11:30.679Z,2.20
2022-11-16T20:13:03.285Z,2.40
2022-11-16T20:14:36.597Z,2.00
2022-11-16T20:16:12.899Z,2.20
2022-11-16T20:19:34.057Z,1.50
2022-11-16T20:21:07.801Z,1.40
2022-11-16T20:22:39.590Z,2.20
2022-11-16T20:24:17.876Z,1.80
2022-11-16T20:25:49.894Z,1.90
2022-11-16T20:27:24.935Z,2.00
2022-11-16T20:28:59.167Z,2.00
2022-11-16T20:30:30.965Z,1.90
2022-11-16T20:32:02.963Z,2.20
2022-11-16T20:33:35.237Z,2.00
2022-11-16T20:35:08.740Z,1.90
2022-11-16T20:36:44.238Z,2.00
2022-11-16T20:38:21.589Z,1.70
2022-11-16T20:39:57.222Z,1.90
2022-11-16T20:41:34.993Z,2.00
2022-11-16T20:43:11.363Z,1.80
2022-11-16T20:44:44.126Z,1.90
2022-11-16T20:46:17.950Z,1.80
2022-11-16T20:47:51.145Z,1.60
2022-11-16T20:49:25.467Z,2.00
2022-11-16T21:02:58.354Z,1.90
2022-11-16T21:04:29.439Z,1.70
2022-11-16T21:06:00.928Z,1.30
2022-11-16T21:07:33.770Z,1.40
2022-11-16T21:09:07.034Z,1.60
2022-11-16T21:10:39.172Z,1.50
2022-11-16T21:12:29.473Z,1.40
2022-11-16T21:14:17.886Z,1.40
2022-11-16T21:16:02.499Z,1.20
2022-11-16T21:17:37.009Z,1.40
2022-11-16T21:19:10.971Z,1.20
2022-11-16T21:20:42.779Z,1.50
2022-11-16T21:22:16.617Z,1.40
2022-11-16T21:23:51.700Z,1.20
2022-11-16T21:25:23.387Z,1.70
2022-11-16T21:26:54.553Z,1.40
2022-11-16T21:28:25.848Z,1.20
2022-11-16T21:29:56.994Z,1.20
2022-11-16T21:31:34.294Z,1.30
2022-11-16T21:33:08.561Z,1.20
2022-11-16T21:34:40.370Z,1.20
2022-11-16T21:36:26.523Z,1.10
2022-11-16T21:38:00.965Z,0.80
2022-11-16T21:39:32.481Z,1.10
2022-11-16T21:41:06.662Z,1.30
2022-11-16T21:42:38.374Z,1.20
2022-11-16T21:44:10.858Z,1.30
2022-11-16T21:45:44.140Z,1.20
2022-11-16T21:47:15.275Z,1.00
2022-11-16T21:48:50.395Z,1.10
2022-11-16T21:50:36.805Z,1.10
2022-11-16T21:52:08.418Z,0.90
2022-11-16T21:53:40.887Z,1.10
2022-11-16T21:56:13.842Z,1.20
2022-11-16T21:57:56.013Z,0.90
2022-11-16T21:59:27.336Z,0.90
2022-11-16T22:01:01.473Z,1.00
2022-11-16T22:02:32.647Z,1.10
2022-11-16T22:04:23.017Z,1.30
2022-11-16T22:06:16.980Z,0.80
2022-11-16T22:07:53.676Z,1.00
2022-11-16T22:09:24.893Z,0.90
2022-11-16T22:10:58.782Z,1.00
2022-11-16T22:12:29.895Z,1.00
2022-11-16T22:14:00.958Z,0.70
2022-11-16T22:15:32.255Z,1.10
2022-11-16T22:17:03.801Z,1.20
2022-11-16T22:18:35.379Z,0.80
2022-11-16T22:20:08.054Z,1.20
2022-11-16T22:21:39.219Z,0.90
2022-11-16T22:23:11.655Z,1.00
2022-11-16T22:24:43.109Z,1.00
2022-11-16T22:26:14.268Z,0.90
2022-11-16T22:28:13.927Z,0.80
2022-11-16T22:29:39.807Z,1.00
2022-11-16T22:31:14.293Z,0.90
2022-11-16T22:45:20.728Z,1.10
2022-11-16T22:46:53.292Z,1.00
2022-11-16T22:48:31.182Z,0.90
2022-11-16T22:50:03.485Z,0.90
2022-11-16T22:51:34.746Z,1.00
2022-11-16T22:53:05.882Z,0.80
2022-11-16T22:54:38.227Z,1.00
2022-11-16T22:56:10.306Z,0.80
2022-11-16T22:57:41.358Z,0.90
2022-11-16T22:59:12.642Z,1.00
2022-11-16T23:00:44.828Z,0.90
2022-11-16T23:07:43.270Z,0.80
2022-11-16T23:09:14.665Z,1.20
2022-11-16T23:11:04.422Z,0.80
2022-11-16T23:13:57.942Z,0.90
2022-11-16T23:15:48.217Z,1.20
2022-11-16T23:17:19.425Z,0.90
2022-11-16T23:18:50.527Z,0.90
2022-11-16T23:20:40.263Z,1.10
2022-11-16T23:22:39.221Z,1.00
2022-11-16T23:24:32.513Z,0.90
2022-11-16T23:26:32.929Z,1.00
2022-11-16T23:28:13.890Z,1.00
2022-11-16T23:29:45.125Z,1.10
2022-11-16T23:31:16.223Z,0.70
2022-11-16T23:32:47.386Z,1.00
2022-11-16T23:34:19.460Z,1.20
2022-11-16T23:35:54.150Z,0.90
2022-11-16T23:37:25.176Z,1.00
2022-11-16T23:38:56.235Z,1.00
2022-11-16T23:40:37.139Z,0.80
2022-11-16T23:42:28.348Z,0.90
2022-11-16T23:43:59.799Z,0.70
2022-11-16T23:45:30.888Z,0.80
2022-11-16T23:47:02.994Z,0.80
2022-11-16T23:48:34.054Z,0.90
2022-11-16T23:50:05.487Z,1.00
2022-11-16T23:51:37.893Z,0.90
2022-11-16T23:53:10.462Z,0.70
2022-11-16T23:54:41.560Z,1.10
2022-11-16T23:56:15.354Z,1.00
2022-11-16T23:57:46.480Z,0.80
2022-11-16T23:59:17.571Z,0.90
